Weather reports worldwide

Advertisment
Newton Rigg, United Kingdom (99152): temperature & dewpoint: 19.09.2018 22:00:00 - 25.09.2018 22:00:00 (BST)Newton Rigg, United Kingdom (99152): temperature -20cm & temperature -100cm: 19.09.2018 22:00:00 - 25.09.2018 22:00:00 (BST)Newton Rigg, United Kingdom (99152): precipitation: 19.09.2018 22:00:00 - 25.09.2018 22:00:00 (BST)
Date & Time tt [°C] td [°C] tt -20cm [°C] tt -100cm [°C] rr [mm]
25.09.2018 22:00:00 12,1 9,2 - - 0,0
25.09.2018 21:00:00 12,2 8,6 - - 0,0
25.09.2018 20:00:00 12,1 7,9 - - 0,0
25.09.2018 19:00:00 12,6 6,8 - - 0,0
25.09.2018 18:00:00 12,7 7,1 - - 0,0
25.09.2018 17:00:00 12,6 7,0 - - 0,0
25.09.2018 16:00:00 12,8 6,7 - - 0,0
25.09.2018 15:00:00 13,2 7,5 - - 0,0
25.09.2018 14:00:00 12,4 6,3 - - 0,0
25.09.2018 13:00:00 13,1 7,9 - - 0,0
25.09.2018 12:00:00 10,8 6,4 - - 0,0
25.09.2018 11:00:00 10,0 6,3 - - 0,0
25.09.2018 10:00:00 8,5 6,4 12,4 13,2 0,0
25.09.2018 09:00:00 7,1 5,6 - - 0,0
25.09.2018 08:00:00 4,8 4,7 - - 0,0
25.09.2018 07:00:00 3,2 3,0 - - 0,0
25.09.2018 06:00:00 3,9 3,7 - - 0,0
25.09.2018 05:00:00 3,7 3,3 - - 0,0
25.09.2018 04:00:00 4,8 4,4 - - 0,0
25.09.2018 03:00:00 6,2 5,4 - - 0,0
25.09.2018 02:00:00 6,7 5,3 - - 0,0
25.09.2018 01:00:00 8,0 6,1 - - 0,0
25.09.2018 00:00:00 9,1 6,9 - - 0,0
24.09.2018 23:00:00 8,9 6,9 - - 0,0
24.09.2018 22:00:00 8,5 6,3 - - 0,0
24.09.2018 21:00:00 9,4 6,5 - - 0,0
24.09.2018 20:00:00 9,9 6,8 - - 0,0
24.09.2018 19:00:00 10,3 7,0 - - 0,0
24.09.2018 18:00:00 10,8 7,5 - - 0,0
24.09.2018 17:00:00 11,8 7,1 - - 0,0
24.09.2018 16:00:00 12,8 6,1 - - 0,0
24.09.2018 15:00:00 12,1 5,6 - - 0,0
24.09.2018 14:00:00 13,4 6,1 - - 0,0
24.09.2018 13:00:00 13,0 5,6 - - 0,0
24.09.2018 12:00:00 11,4 6,0 - - 0,0
24.09.2018 11:00:00 11,0 5,4 - - 0,0
24.09.2018 10:00:00 10,2 5,8 12,5 13,4 0,0
24.09.2018 09:00:00 5,3 4,4 - - 0,0
24.09.2018 08:00:00 1,8 1,5 - - 0,0
24.09.2018 07:00:00 1,4 0,4 - - 0,0
24.09.2018 06:00:00 2,6 1,9 - - 0,0
24.09.2018 05:00:00 3,1 2,5 - - 0,0
24.09.2018 04:00:00 4,2 2,3 - - 0,0
24.09.2018 03:00:00 5,8 2,7 - - 0,0
24.09.2018 02:00:00 6,3 3,3 - - 0,0
24.09.2018 01:00:00 6,7 3,5 - - 0,0
24.09.2018 00:00:00 6,7 3,8 - - 0,0
23.09.2018 23:00:00 6,3 3,7 - - 0,0
23.09.2018 22:00:00 7,2 4,0 - - 0,0
23.09.2018 21:00:00 7,8 4,0 - - 0,0
23.09.2018 20:00:00 8,3 4,4 - - 0,0
23.09.2018 19:00:00 9,5 4,4 - - 0,0
23.09.2018 18:00:00 11,7 4,4 - - 0,0
23.09.2018 17:00:00 11,6 4,6 - - 0,0
23.09.2018 16:00:00 13,2 4,5 - - 0,0
23.09.2018 15:00:00 12,8 5,2 - - 0,0
23.09.2018 14:00:00 11,7 5,5 - - 0,0
23.09.2018 13:00:00 11,6 5,7 - - 0,0
23.09.2018 12:00:00 10,5 5,1 - - 0,0
23.09.2018 11:00:00 10,1 5,1 - - 0,0
23.09.2018 10:00:00 8,3 5,9 12,7 13,7 0,0
23.09.2018 09:00:00 3,6 3,5 - - 0,0
23.09.2018 08:00:00 2,2 2,2 - - 0,0
23.09.2018 07:00:00 1,9 1,8 - - 0,0
23.09.2018 06:00:00 2,4 2,3 - - 0,0
23.09.2018 05:00:00 2,3 2,1 - - 0,0
23.09.2018 04:00:00 1,8 1,5 - - 0,0
23.09.2018 03:00:00 2,2 1,6 - - 0,0
23.09.2018 02:00:00 2,9 2,4 - - 0,0
23.09.2018 01:00:00 3,9 3,0 - - 0,0
23.09.2018 00:00:00 4,8 2,8 - - 0,0
22.09.2018 23:00:00 6,0 4,2 - - 0,0
22.09.2018 22:00:00 6,7 4,5 - - 0,0
22.09.2018 21:00:00 8,0 5,7 - - 0,0
22.09.2018 20:00:00 7,8 5,6 - - 0,0
22.09.2018 19:00:00 8,8 5,4 - - 0,0
22.09.2018 18:00:00 10,0 6,3 - - 0,0
22.09.2018 17:00:00 10,5 6,2 - - 0,0
22.09.2018 16:00:00 12,4 5,8 - - 0,0
22.09.2018 15:00:00 12,0 5,6 - - 0,0
22.09.2018 14:00:00 10,5 6,6 - - 0,0
22.09.2018 13:00:00 10,5 6,0 - - 0,0
22.09.2018 12:00:00 10,3 6,2 - - 0,0
22.09.2018 11:00:00 10,3 6,5 - - 0,0
22.09.2018 10:00:00 9,7 6,0 13,0 13,7 0,0
22.09.2018 09:00:00 9,1 5,7 - - 0,0
22.09.2018 08:00:00 8,3 5,3 - - 0,0
22.09.2018 07:00:00 7,8 4,7 - - 0,0
22.09.2018 06:00:00 7,6 3,7 - - 0,0
22.09.2018 05:00:00 8,1 4,2 - - 0,0
22.09.2018 04:00:00 8,2 4,0 - - 0,0
22.09.2018 03:00:00 8,2 4,6 - - 0,0
22.09.2018 02:00:00 8,1 4,5 - - 0,0
22.09.2018 01:00:00 8,4 4,3 - - 0,0
22.09.2018 00:00:00 8,7 5,8 - - 0,0
21.09.2018 23:00:00 8,4 6,2 - - 0,4
21.09.2018 22:00:00 9,2 5,8 - - 0,0
21.09.2018 21:00:00 9,4 5,9 - - 0,0
21.09.2018 20:00:00 9,4 5,4 - - 0,0
21.09.2018 19:00:00 10,3 5,9 - - 0,0
21.09.2018 18:00:00 11,0 6,7 - - 0,0
21.09.2018 17:00:00 12,0 7,5 - - 0,0
21.09.2018 16:00:00 11,1 6,5 - - 0,0
21.09.2018 15:00:00 11,1 6,3 - - 0,0
21.09.2018 14:00:00 10,0 8,3 - - 0,0
21.09.2018 13:00:00 10,4 7,8 - - 0,2
21.09.2018 12:00:00 11,0 6,0 - - 0,2
21.09.2018 11:00:00 10,1 6,0 - - 0,0
21.09.2018 10:00:00 8,3 6,0 13,2 13,9 0,0
21.09.2018 09:00:00 8,1 6,3 - - 0,4
21.09.2018 08:00:00 7,7 5,6 - - 0,0
21.09.2018 07:00:00 6,8 5,0 - - 0,0
21.09.2018 06:00:00 6,4 5,1 - - 0,6
21.09.2018 05:00:00 5,7 5,0 - - 2,0
21.09.2018 04:00:00 5,6 4,8 - - 2,6
21.09.2018 03:00:00 5,2 4,8 - - 3,8
21.09.2018 02:00:00 5,2 4,7 - - 4,0
21.09.2018 01:00:00 7,2 7,0 - - 0,8
21.09.2018 00:00:00 7,7 7,5 - - 5,2
20.09.2018 23:00:00 7,8 7,7 - - 4,4
20.09.2018 22:00:00 7,6 7,5 - - 3,4
20.09.2018 21:00:00 7,8 7,7 - - 0,8
20.09.2018 20:00:00 7,8 7,5 - - 1,0
20.09.2018 19:00:00 8,0 7,5 - - 0,2
20.09.2018 18:00:00 8,0 7,6 - - 1,6
20.09.2018 17:00:00 9,2 8,2 - - 3,4
20.09.2018 16:00:00 10,2 7,9 - - 1,0
20.09.2018 15:00:00 11,6 6,3 - - 0,0
20.09.2018 14:00:00 12,2 5,5 - - 0,0
20.09.2018 13:00:00 12,7 5,3 - - 0,0
20.09.2018 12:00:00 13,1 5,6 - - 0,0
20.09.2018 11:00:00 12,1 5,6 - - 0,0
20.09.2018 10:00:00 11,2 6,3 14,0 14,0 0,0
20.09.2018 09:00:00 10,0 6,4 - - 0,0
20.09.2018 08:00:00 7,8 5,4 - - 0,0
20.09.2018 07:00:00 7,5 4,3 - - 0,0
20.09.2018 06:00:00 9,2 5,1 - - 0,0
20.09.2018 05:00:00 8,9 5,0 - - 0,0
20.09.2018 04:00:00 9,6 4,5 - - 0,0
20.09.2018 03:00:00 10,3 5,1 - - 0,0
20.09.2018 02:00:00 10,6 4,5 - - 0,0
20.09.2018 01:00:00 10,4 5,3 - - 0,0
20.09.2018 00:00:00 10,9 4,9 - - 0,0
19.09.2018 23:00:00 10,2 6,1 - - 0,0
19.09.2018 22:00:00 10,6 5,5 - - 0,2

tt = temperature
td = dewpoint
tt -20cm = temperature -20cm
tt -100cm = temperature -100cm
rr = precipitation

Next stations